createdAt,value
2023-03-24T00:00:20.309Z,12.90
2023-03-24T00:02:49.907Z,12.90
2023-03-24T00:05:21.424Z,12.80
2023-03-24T00:07:54.512Z,12.80
2023-03-24T00:10:24.159Z,12.70
2023-03-24T00:12:54.141Z,12.60
2023-03-24T00:15:24.507Z,12.60
2023-03-24T00:17:55.866Z,12.80
2023-03-24T00:20:26.340Z,13.20
2023-03-24T00:22:58.840Z,13.40
2023-03-24T00:25:34.128Z,13.60
2023-03-24T00:28:05.803Z,13.80
2023-03-24T00:30:36.234Z,14.10
2023-03-24T00:33:04.523Z,14.30
2023-03-24T00:35:32.900Z,14.50
2023-03-24T00:38:00.908Z,14.60
2023-03-24T00:40:29.937Z,14.60
2023-03-24T00:42:59.189Z,14.60
2023-03-24T00:45:29.472Z,14.80
2023-03-24T00:47:58.076Z,14.90
2023-03-24T00:50:27.696Z,15.00
2023-03-24T00:52:58.272Z,14.90
2023-03-24T00:55:28.775Z,15.00
2023-03-24T00:57:57.404Z,15.10
2023-03-24T01:00:28.509Z,15.10
2023-03-24T01:02:59.134Z,15.20
2023-03-24T01:05:31.912Z,15.30
2023-03-24T01:08:03.870Z,15.30
2023-03-24T01:10:36.077Z,15.30
2023-03-24T01:13:05.432Z,15.30
2023-03-24T01:15:36.578Z,15.40
2023-03-24T01:18:05.222Z,15.60
2023-03-24T01:20:35.750Z,15.60
2023-03-24T01:23:06.061Z,15.70
2023-03-24T01:25:37.024Z,15.70
2023-03-24T01:28:05.967Z,15.70
2023-03-24T01:30:35.770Z,15.70
2023-03-24T01:33:04.076Z,15.70
2023-03-24T01:35:32.752Z,15.70
2023-03-24T01:38:01.012Z,15.60
2023-03-24T01:40:33.537Z,15.70
2023-03-24T01:43:02.361Z,15.60
2023-03-24T01:45:58.698Z,15.60
2023-03-24T01:48:32.765Z,15.60
2023-03-24T01:51:08.619Z,15.70
2023-03-24T01:53:43.959Z,15.70
2023-03-24T01:56:13.498Z,15.70
2023-03-24T01:58:52.114Z,15.70
2023-03-24T02:01:30.563Z,15.80
2023-03-24T02:04:11.149Z,15.80
2023-03-24T02:06:43.893Z,15.90
2023-03-24T02:09:15.607Z,15.80
2023-03-24T02:11:45.739Z,15.80
2023-03-24T02:14:15.057Z,15.90
2023-03-24T02:17:06.736Z,16.00
2023-03-24T02:20:19.890Z,16.00
2023-03-24T02:23:33.997Z,16.00
2023-03-24T02:26:54.288Z,16.10
2023-03-24T02:30:14.590Z,16.10
2023-03-24T02:33:34.567Z,16.10
2023-03-24T02:37:04.113Z,16.20
2023-03-24T02:39:53.575Z,16.30
2023-03-24T02:42:34.217Z,16.20
2023-03-24T02:45:20.425Z,16.10
2023-03-24T02:48:05.404Z,16.00
2023-03-24T02:50:44.075Z,15.80
2023-03-24T02:53:22.738Z,15.60
2023-03-24T02:56:16.832Z,15.40
2023-03-24T02:58:52.653Z,15.20
2023-03-24T03:01:32.013Z,15.10
2023-03-24T03:04:19.255Z,15.00
2023-03-24T03:06:53.902Z,14.80
2023-03-24T03:09:24.715Z,14.70
2023-03-24T03:11:59.166Z,14.70
2023-03-24T03:14:36.630Z,14.60
2023-03-24T03:17:12.904Z,14.60
2023-03-24T03:19:46.301Z,14.50
2023-03-24T03:22:20.697Z,14.50
2023-03-24T03:24:55.438Z,14.50
2023-03-24T03:27:31.293Z,14.60
2023-03-24T03:30:04.785Z,14.60
2023-03-24T03:32:39.042Z,14.60
2023-03-24T03:35:16.010Z,14.60
2023-03-24T03:37:53.750Z,14.70
2023-03-24T03:40:27.699Z,14.60
2023-03-24T03:43:06.079Z,14.70
2023-03-24T03:45:36.073Z,14.70
2023-03-24T03:48:04.635Z,14.70
2023-03-24T03:50:33.052Z,14.70
2023-03-24T03:53:06.765Z,14.70
2023-03-24T03:55:36.247Z,14.70
2023-03-24T03:58:07.529Z,14.90
2023-03-24T04:00:45.061Z,15.00
2023-03-24T04:04:00.057Z,15.00
2023-03-24T04:06:57.676Z,15.00
2023-03-24T04:09:41.953Z,15.00
2023-03-24T04:12:36.790Z,15.00
2023-03-24T04:15:37.918Z,14.90
2023-03-24T04:18:47.252Z,14.90
2023-03-24T04:21:51.703Z,14.80
2023-03-24T04:24:40.166Z,14.80
2023-03-24T04:27:14.934Z,14.80
2023-03-24T04:29:56.244Z,14.80
2023-03-24T04:32:41.621Z,14.70
2023-03-24T04:35:20.878Z,14.60
2023-03-24T04:38:17.263Z,14.60
2023-03-24T04:40:53.104Z,14.60
2023-03-24T04:43:27.377Z,14.50
2023-03-24T04:45:58.969Z,14.40
2023-03-24T04:48:41.618Z,14.10
2023-03-24T04:51:21.957Z,13.70
2023-03-24T04:54:04.434Z,13.40
2023-03-24T04:56:45.977Z,13.20
2023-03-24T04:59:22.697Z,13.00
2023-03-24T05:01:51.691Z,12.80
2023-03-24T05:04:50.486Z,12.60
2023-03-24T05:07:27.106Z,12.50
2023-03-24T05:09:59.329Z,12.40
2023-03-24T05:12:27.709Z,12.40
2023-03-24T05:15:21.252Z,12.30
2023-03-24T05:17:54.449Z,12.20
2023-03-24T05:20:28.718Z,12.20
2023-03-24T05:23:06.494Z,12.20
2023-03-24T05:25:34.611Z,12.10
2023-03-24T05:28:02.883Z,12.10
2023-03-24T05:30:31.892Z,12.10
2023-03-24T05:33:09.750Z,12.00
2023-03-24T05:35:39.199Z,12.00
2023-03-24T05:38:07.696Z,12.00
2023-03-24T05:40:37.190Z,12.00
2023-03-24T05:43:15.884Z,12.00
2023-03-24T05:45:51.280Z,12.00
2023-03-24T05:48:32.137Z,12.00
2023-03-24T05:51:22.509Z,12.00
2023-03-24T05:54:02.357Z,12.00
2023-03-24T05:56:35.577Z,12.00
2023-03-24T05:59:04.005Z,12.00
2023-03-24T06:02:02.520Z,12.10
2023-03-24T06:04:46.834Z,12.10
2023-03-24T06:07:19.529Z,12.20
2023-03-24T06:09:50.944Z,12.30
2023-03-24T06:12:21.994Z,12.40
2023-03-24T06:15:00.846Z,12.50
2023-03-24T06:17:31.388Z,12.50
2023-03-24T06:20:06.202Z,12.50
2023-03-24T06:22:39.096Z,12.60
2023-03-24T06:25:15.165Z,12.60
2023-03-24T06:27:49.949Z,12.60
2023-03-24T06:30:22.999Z,12.60
2023-03-24T06:32:51.597Z,12.50
2023-03-24T06:35:21.450Z,12.70
2023-03-24T06:37:57.971Z,12.60
2023-03-24T06:40:26.392Z,12.50
2023-03-24T06:42:58.170Z,12.50
2023-03-24T06:45:28.617Z,12.50
2023-03-24T06:47:58.207Z,12.40
2023-03-24T06:50:32.602Z,12.40
2023-03-24T06:53:03.849Z,12.40
2023-03-24T06:55:34.443Z,12.40
2023-03-24T06:58:03.419Z,12.40
2023-03-24T07:00:53.773Z,12.40
2023-03-24T07:03:52.409Z,12.40
2023-03-24T07:06:40.456Z,12.40
2023-03-24T07:09:21.298Z,12.30
2023-03-24T07:11:49.316Z,12.40
2023-03-24T07:14:17.958Z,12.30
2023-03-24T07:16:47.114Z,12.30
2023-03-24T07:19:37.425Z,12.30
2023-03-24T07:22:25.496Z,12.20
2023-03-24T07:25:27.637Z,12.30
2023-03-24T07:28:05.653Z,12.30
2023-03-24T07:30:40.634Z,12.40
2023-03-24T07:33:24.152Z,12.30
2023-03-24T07:35:57.154Z,12.30
2023-03-24T07:38:25.895Z,12.30
2023-03-24T07:41:00.629Z,12.30
2023-03-24T07:43:33.945Z,12.30
2023-03-24T07:46:25.981Z,12.30
2023-03-24T07:48:54.536Z,12.30
2023-03-24T07:51:22.843Z,12.20
2023-03-24T07:53:54.936Z,12.20
2023-03-24T07:56:32.274Z,12.20
2023-03-24T07:59:02.480Z,12.30
2023-03-24T08:01:47.250Z,12.30
2023-03-24T08:04:20.467Z,12.40
2023-03-24T08:06:48.946Z,12.40
2023-03-24T08:09:17.661Z,12.50
2023-03-24T08:11:47.429Z,12.60
2023-03-24T08:14:15.436Z,12.60
2023-03-24T08:16:46.325Z,12.70
2023-03-24T08:19:14.468Z,12.80
2023-03-24T08:21:42.504Z,12.90
2023-03-24T08:24:10.735Z,13.00
2023-03-24T08:26:39.119Z,13.10
2023-03-24T08:29:08.485Z,13.20
2023-03-24T08:31:38.617Z,13.30
2023-03-24T08:34:07.836Z,13.40
2023-03-24T08:36:35.887Z,13.50
2023-03-24T08:39:06.768Z,13.50
2023-03-24T08:41:35.597Z,13.70
2023-03-24T08:44:06.804Z,13.80
2023-03-24T08:46:36.721Z,13.80
2023-03-24T08:49:05.961Z,13.90
2023-03-24T08:51:34.753Z,13.90
2023-03-24T08:54:03.891Z,13.90
2023-03-24T08:56:32.442Z,13.90
2023-03-24T08:59:00.586Z,13.80
2023-03-24T09:01:30.388Z,13.80
2023-03-24T09:03:59.788Z,13.60
2023-03-24T09:06:28.145Z,13.60
2023-03-24T09:08:57.075Z,13.70
2023-03-24T09:11:25.497Z,13.70
2023-03-24T09:13:53.898Z,13.80
2023-03-24T09:16:23.822Z,14.00
2023-03-24T09:18:51.927Z,14.10
2023-03-24T09:21:21.606Z,14.30
2023-03-24T09:23:49.659Z,14.50
2023-03-24T09:26:17.684Z,14.70
2023-03-24T09:28:46.060Z,14.90
2023-03-24T09:31:14.160Z,14.90
2023-03-24T09:33:42.345Z,15.10
2023-03-24T09:36:12.138Z,15.20
2023-03-24T09:38:42.008Z,15.30
2023-03-24T09:41:19.029Z,15.40
2023-03-24T09:43:56.707Z,15.40
2023-03-24T09:46:32.887Z,15.50
2023-03-24T09:49:01.138Z,15.40
2023-03-24T09:51:33.980Z,15.40
2023-03-24T09:54:15.496Z,15.40
2023-03-24T09:56:49.974Z,15.50
2023-03-24T09:59:22.786Z,15.80
2023-03-24T10:01:52.056Z,15.90
2023-03-24T10:04:23.685Z,15.90
2023-03-24T10:07:01.966Z,16.00
2023-03-24T10:09:35.368Z,16.00
2023-03-24T10:12:28.574Z,15.90
2023-03-24T10:15:10.487Z,15.60
2023-03-24T10:17:49.384Z,15.50
2023-03-24T10:20:32.927Z,15.50
2023-03-24T10:23:08.773Z,15.40
2023-03-24T10:25:50.003Z,15.40
2023-03-24T10:28:24.716Z,15.60
2023-03-24T10:30:56.856Z,15.80
2023-03-24T10:33:25.151Z,15.90
2023-03-24T10:36:02.449Z,15.80
2023-03-24T10:38:30.592Z,15.50
2023-03-24T10:41:02.775Z,15.50
2023-03-24T10:43:33.477Z,15.50
2023-03-24T10:46:04.434Z,15.40
2023-03-24T10:48:43.152Z,15.50
2023-03-24T10:51:17.942Z,15.60
2023-03-24T10:53:49.102Z,15.80
2023-03-24T10:56:38.194Z,15.80
2023-03-24T10:59:20.258Z,15.80
2023-03-24T11:01:49.294Z,15.50
2023-03-24T11:04:21.175Z,15.10
2023-03-24T11:07:06.379Z,14.80
2023-03-24T11:09:42.223Z,14.80
2023-03-24T11:12:26.566Z,14.80
2023-03-24T11:15:14.202Z,14.90
2023-03-24T11:17:53.495Z,15.00
2023-03-24T11:20:29.749Z,15.00
2023-03-24T11:23:02.708Z,15.10
2023-03-24T11:25:34.471Z,15.10
2023-03-24T11:28:09.877Z,15.00
2023-03-24T11:30:49.313Z,14.80
2023-03-24T11:33:34.595Z,14.50
2023-03-24T11:36:30.910Z,14.40
2023-03-24T11:39:03.661Z,14.70
2023-03-24T11:41:31.946Z,15.10
2023-03-24T11:44:19.790Z,15.30
2023-03-24T11:46:53.372Z,15.70
2023-03-24T11:49:55.717Z,15.80
2023-03-24T11:52:29.651Z,15.80
2023-03-24T11:54:58.106Z,16.00
2023-03-24T11:57:46.007Z,15.80
2023-03-24T12:00:24.822Z,15.70
2023-03-24T12:03:50.743Z,15.60
2023-03-24T12:06:34.811Z,15.50
2023-03-24T12:09:23.108Z,15.60
2023-03-24T12:12:15.515Z,15.80
2023-03-24T12:15:20.672Z,15.80
2023-03-24T12:18:13.696Z,15.70
2023-03-24T12:20:51.828Z,15.90
2023-03-24T12:23:30.083Z,15.80
2023-03-24T12:26:18.855Z,15.90
2023-03-24T12:28:59.376Z,16.20
2023-03-24T12:31:56.166Z,16.10
2023-03-24T12:35:25.337Z,15.80
2023-03-24T12:38:08.775Z,15.50
2023-03-24T12:41:08.606Z,15.10
2023-03-24T12:43:48.751Z,14.40
2023-03-24T12:46:47.915Z,13.40
2023-03-24T12:49:42.926Z,12.80
2023-03-24T12:52:51.170Z,12.40
2023-03-24T12:55:39.956Z,12.00
2023-03-24T12:58:19.114Z,11.80
2023-03-24T13:01:02.229Z,11.60
2023-03-24T13:03:41.333Z,11.60
2023-03-24T13:06:22.001Z,11.50
2023-03-24T13:09:06.046Z,11.50
2023-03-24T13:11:48.612Z,11.40
2023-03-24T13:14:26.618Z,11.50
2023-03-24T13:17:06.254Z,11.30
2023-03-24T13:19:38.887Z,11.40
2023-03-24T13:22:15.637Z,11.40
2023-03-24T13:24:44.558Z,11.40
2023-03-24T13:27:24.438Z,11.40
2023-03-24T13:30:31.212Z,11.40
2023-03-24T13:33:08.561Z,11.40
2023-03-24T13:36:00.076Z,11.40
2023-03-24T13:38:37.093Z,11.60
2023-03-24T13:41:08.485Z,11.80
2023-03-24T13:43:37.990Z,12.10
2023-03-24T13:46:13.546Z,12.30
2023-03-24T13:48:45.198Z,12.20
2023-03-24T13:51:20.663Z,12.00
2023-03-24T13:53:56.685Z,12.00
2023-03-24T13:56:32.608Z,11.90
2023-03-24T13:59:27.622Z,11.70
2023-03-24T14:02:46.947Z,11.60
2023-03-24T14:05:35.792Z,11.60
2023-03-24T14:08:15.985Z,11.60
2023-03-24T14:10:50.056Z,11.60
2023-03-24T14:13:35.775Z,11.60
2023-03-24T14:16:50.203Z,11.70
2023-03-24T14:19:31.160Z,11.90
2023-03-24T14:22:12.159Z,12.30
2023-03-24T14:24:43.418Z,12.50
2023-03-24T14:27:38.020Z,12.50
2023-03-24T14:30:17.936Z,12.50
2023-03-24T14:32:49.755Z,12.50
2023-03-24T14:35:32.366Z,12.60
2023-03-24T14:38:05.016Z,12.50
2023-03-24T14:40:38.830Z,12.50
2023-03-24T14:43:23.145Z,12.50
2023-03-24T14:46:02.835Z,12.60
2023-03-24T14:48:41.837Z,12.70
2023-03-24T14:51:41.922Z,12.90
2023-03-24T14:54:18.995Z,12.80
2023-03-24T14:56:53.917Z,12.90
2023-03-24T14:59:42.917Z,13.00
2023-03-24T15:02:33.257Z,13.10
2023-03-24T15:05:29.869Z,13.20
2023-03-24T15:08:14.364Z,13.20
2023-03-24T15:10:49.385Z,13.20
2023-03-24T15:13:40.328Z,13.30
2023-03-24T15:16:21.698Z,13.30
2023-03-24T15:19:01.323Z,13.20
2023-03-24T15:21:36.809Z,13.10
2023-03-24T15:24:30.717Z,13.00
2023-03-24T15:27:22.771Z,13.00
2023-03-24T15:29:59.416Z,13.20
2023-03-24T15:32:38.759Z,13.20
2023-03-24T15:35:13.801Z,13.20
2023-03-24T15:37:48.317Z,13.20
2023-03-24T15:40:35.539Z,13.30
2023-03-24T15:43:07.887Z,13.30
2023-03-24T15:45:51.050Z,13.10
2023-03-24T15:48:26.364Z,13.00
2023-03-24T15:51:01.248Z,13.00
2023-03-24T15:53:42.006Z,13.00
2023-03-24T15:56:21.492Z,13.00
2023-03-24T15:58:53.757Z,12.90
2023-03-24T16:01:36.713Z,12.90
2023-03-24T16:04:07.825Z,12.90
2023-03-24T16:06:38.395Z,12.90
2023-03-24T16:09:13.978Z,12.80
2023-03-24T16:11:43.394Z,12.80
2023-03-24T16:14:23.816Z,12.80
2023-03-24T16:16:56.038Z,12.80
2023-03-24T16:19:25.473Z,12.80
2023-03-24T16:21:54.624Z,12.80
2023-03-24T16:24:24.947Z,12.80
2023-03-24T16:26:52.995Z,12.80
2023-03-24T16:29:24.916Z,12.80
2023-03-24T16:31:56.885Z,12.80
2023-03-24T16:34:25.558Z,12.90
2023-03-24T16:36:56.775Z,12.90
2023-03-24T16:39:28.872Z,12.90
2023-03-24T16:41:58.194Z,12.90
2023-03-24T16:44:26.925Z,12.80
2023-03-24T16:46:57.654Z,12.90
2023-03-24T16:49:26.120Z,12.60
2023-03-24T16:51:55.277Z,12.60
2023-03-24T16:54:24.851Z,12.50
2023-03-24T16:56:52.852Z,12.50
2023-03-24T16:59:22.729Z,12.40
2023-03-24T17:01:53.693Z,12.40
2023-03-24T17:04:23.865Z,12.30
2023-03-24T17:06:54.361Z,12.30
2023-03-24T17:09:24.231Z,12.20
2023-03-24T17:11:57.426Z,12.10
2023-03-24T17:14:25.972Z,12.10
2023-03-24T17:16:54.174Z,12.10
2023-03-24T17:19:25.614Z,12.00
2023-03-24T17:22:00.619Z,12.00
2023-03-24T17:24:31.584Z,12.00
2023-03-24T17:27:01.360Z,11.90
2023-03-24T17:29:30.265Z,11.90
2023-03-24T17:31:58.216Z,11.90
2023-03-24T17:34:26.314Z,11.80
2023-03-24T17:36:54.583Z,11.70
2023-03-24T17:39:23.026Z,11.70
2023-03-24T17:41:51.244Z,11.70
2023-03-24T17:44:20.600Z,11.60
2023-03-24T17:46:49.373Z,11.50
2023-03-24T17:49:17.442Z,11.50
2023-03-24T17:51:45.484Z,11.50
2023-03-24T17:54:14.162Z,11.50
2023-03-24T17:56:42.439Z,11.40
2023-03-24T17:59:10.808Z,11.40
2023-03-24T18:01:40.442Z,11.30
2023-03-24T18:04:09.057Z,11.30
2023-03-24T18:06:38.506Z,11.20
2023-03-24T18:09:09.092Z,11.20
2023-03-24T18:11:37.447Z,11.20
2023-03-24T18:14:07.073Z,11.20
2023-03-24T18:22:49.202Z,11.20
2023-03-24T18:35:02.491Z,11.00
2023-03-24T18:37:33.804Z,11.00
2023-03-24T18:40:11.591Z,10.90
2023-03-24T18:42:46.673Z,10.90
2023-03-24T18:45:19.708Z,10.80
2023-03-24T18:47:51.919Z,10.80
2023-03-24T18:50:25.835Z,10.90
2023-03-24T18:52:58.450Z,10.90
2023-03-24T18:55:30.636Z,10.90
2023-03-24T18:58:02.300Z,10.90
2023-03-24T19:00:34.066Z,10.80
2023-03-24T19:03:07.477Z,10.80
2023-03-24T19:05:39.210Z,10.80
2023-03-24T19:08:15.051Z,10.80
2023-03-24T19:10:46.944Z,10.80
2023-03-24T19:13:19.909Z,10.80
2023-03-24T19:15:56.134Z,10.70
2023-03-24T19:18:29.525Z,10.80
2023-03-24T19:21:03.042Z,10.80
2023-03-24T19:23:34.826Z,10.80
2023-03-24T19:26:05.123Z,10.70
2023-03-24T19:28:37.486Z,10.70
2023-03-24T19:31:12.198Z,10.70
2023-03-24T19:33:41.888Z,10.60
2023-03-24T19:36:14.888Z,10.60
2023-03-24T19:38:46.403Z,10.60
2023-03-24T19:41:17.843Z,10.60
2023-03-24T19:43:48.756Z,10.50
2023-03-24T19:46:21.297Z,10.50
2023-03-24T19:48:51.880Z,10.40
2023-03-24T19:51:24.475Z,10.30
2023-03-24T19:53:56.728Z,10.30
2023-03-24T19:56:28.346Z,10.30
2023-03-24T19:58:59.488Z,10.20
2023-03-24T20:01:35.899Z,10.10
2023-03-24T20:04:06.092Z,10.10
2023-03-24T20:06:39.385Z,10.10
2023-03-24T20:09:11.597Z,10.20
2023-03-24T20:11:42.494Z,10.30
2023-03-24T20:14:13.108Z,10.40
2023-03-24T20:16:44.409Z,10.40
2023-03-24T20:19:15.085Z,10.40
2023-03-24T20:21:47.198Z,10.40
2023-03-24T20:24:18.582Z,10.40
2023-03-24T20:26:49.523Z,10.40
2023-03-24T20:29:20.160Z,10.40
2023-03-24T20:31:53.355Z,10.40
2023-03-24T20:34:23.872Z,10.40
2023-03-24T20:36:56.452Z,10.50
2023-03-24T20:39:27.135Z,10.50
2023-03-24T20:41:57.572Z,10.50
2023-03-24T20:44:28.396Z,10.50
2023-03-24T20:46:59.755Z,10.60
2023-03-24T20:49:29.885Z,10.70
2023-03-24T20:52:01.901Z,10.80
2023-03-24T20:54:32.794Z,10.90
2023-03-24T20:57:03.969Z,10.90
2023-03-24T21:04:00.104Z,11.10
2023-03-24T21:06:39.947Z,11.20
2023-03-24T21:09:13.471Z,11.10
2023-03-24T21:11:44.273Z,11.00
2023-03-24T21:14:14.323Z,11.00
2023-03-24T21:21:22.243Z,10.80
2023-03-24T21:44:11.994Z,10.80
2023-03-24T21:46:42.442Z,10.90
2023-03-24T21:55:17.009Z,10.90
